<?xml version="1.0" encoding="UTF-8" standalone="no" ?>
<gpx xmlns="http://www.topografix.com/GPX/1/1" xmlns:xsi="http://www.w3.org/2001/XMLSchema-instance" xsi:schemaLocation="http://www.topografix.com/GPX/1/1 http://www.topografix.com/GPX/1/1/gpx.xsd" version="1.1" creator="VisuGPX - https://www.visugpx.com">
  <metadata>
    <name>Falaises de la Seine 37 km 2 jours</name>
    <desc><![CDATA[Très belle randonnée de 37 km à réaliser en un ou deux jours  (nuit à La Roche-Guyon) - niveau moyen à difficile - Départ de Vernon - Retour par la Gare de Mantes-La-Jolie]]></desc>
  </metadata>
  <trk>
    <name><![CDATA[14814715-Falaises de la Seine ]]></name>
    <trkseg>
      <trkpt lat="49.09138" lon="1.47841">
        <ele>27</ele>
        <time>2022-05-23T07:52:48Z</time>
      </trkpt>
      <trkpt lat="49.09073" lon="1.47966">
        <ele>27</ele>
        <time>2022-05-23T07:55:07Z</time>
      </trkpt>
      <trkpt lat="49.09129" lon="1.48129">
        <ele>28</ele>
        <time>2022-05-23T07:57:48Z</time>
      </trkpt>
      <trkpt lat="49.09214" lon="1.48262">
        <ele>26</ele>
        <time>2022-05-23T08:00:31Z</time>
      </trkpt>
      <trkpt lat="49.09284" lon="1.48365">
        <ele>25</ele>
        <time>2022-05-23T08:02:40Z</time>
      </trkpt>
      <trkpt lat="49.09354" lon="1.48459">
        <ele>23</ele>
        <time>2022-05-23T08:04:45Z</time>
      </trkpt>
      <trkpt lat="49.09416" lon="1.48566">
        <ele>22</ele>
        <time>2022-05-23T08:06:50Z</time>
      </trkpt>
      <trkpt lat="49.09458" lon="1.48631">
        <ele>19</ele>
        <time>2022-05-23T08:08:10Z</time>
      </trkpt>
      <trkpt lat="49.09551" lon="1.48772">
        <ele>11</ele>
        <time>2022-05-23T08:11:04Z</time>
      </trkpt>
      <trkpt lat="49.09655" lon="1.48936">
        <ele>15</ele>
        <time>2022-05-23T08:14:24Z</time>
      </trkpt>
      <trkpt lat="49.09677" lon="1.4906">
        <ele>16</ele>
        <time>2022-05-23T08:16:16Z</time>
      </trkpt>
      <trkpt lat="49.09756" lon="1.49197">
        <ele>18</ele>
        <time>2022-05-23T08:18:56Z</time>
      </trkpt>
      <trkpt lat="49.09556" lon="1.49582">
        <ele>30</ele>
        <time>2022-05-23T08:26:05Z</time>
      </trkpt>
      <trkpt lat="49.09401" lon="1.49857">
        <ele>28</ele>
        <time>2022-05-23T08:31:22Z</time>
      </trkpt>
      <trkpt lat="49.0923" lon="1.50161">
        <ele>32</ele>
        <time>2022-05-23T08:37:12Z</time>
      </trkpt>
      <trkpt lat="49.09095" lon="1.50367">
        <ele>28</ele>
        <time>2022-05-23T08:41:27Z</time>
      </trkpt>
      <trkpt lat="49.08929" lon="1.50655">
        <ele>26</ele>
        <time>2022-05-23T08:47:02Z</time>
      </trkpt>
      <trkpt lat="49.08848" lon="1.50785">
        <ele>26</ele>
        <time>2022-05-23T08:49:39Z</time>
      </trkpt>
      <trkpt lat="49.08806" lon="1.50862">
        <ele>25</ele>
        <time>2022-05-23T08:51:07Z</time>
      </trkpt>
      <trkpt lat="49.08763" lon="1.50961">
        <ele>24</ele>
        <time>2022-05-23T08:52:51Z</time>
      </trkpt>
      <trkpt lat="49.08834" lon="1.50965">
        <ele>40</ele>
        <time>2022-05-23T08:54:25Z</time>
      </trkpt>
      <trkpt lat="49.08845" lon="1.51064">
        <ele>55</ele>
        <time>2022-05-23T08:55:53Z</time>
      </trkpt>
      <trkpt lat="49.08842" lon="1.51103">
        <ele>61</ele>
        <time>2022-05-23T08:56:27Z</time>
      </trkpt>
      <trkpt lat="49.08758" lon="1.51133">
        <ele>58</ele>
        <time>2022-05-23T08:58:23Z</time>
      </trkpt>
      <trkpt lat="49.08702" lon="1.51249">
        <ele>74</ele>
        <time>2022-05-23T09:00:28Z</time>
      </trkpt>
      <trkpt lat="49.08719" lon="1.51382">
        <ele>105</ele>
        <time>2022-05-23T09:02:27Z</time>
      </trkpt>
      <trkpt lat="49.08707" lon="1.51506">
        <ele>118</ele>
        <time>2022-05-23T09:04:16Z</time>
      </trkpt>
      <trkpt lat="49.08693" lon="1.51588">
        <ele>120</ele>
        <time>2022-05-23T09:05:30Z</time>
      </trkpt>
      <trkpt lat="49.08648" lon="1.51738">
        <ele>118</ele>
        <time>2022-05-23T09:07:55Z</time>
      </trkpt>
      <trkpt lat="49.08624" lon="1.51781">
        <ele>117</ele>
        <time>2022-05-23T09:08:44Z</time>
      </trkpt>
      <trkpt lat="49.08565" lon="1.51742">
        <ele>112</ele>
        <time>2022-05-23T09:10:10Z</time>
      </trkpt>
      <trkpt lat="49.0841" lon="1.51807">
        <ele>83</ele>
        <time>2022-05-23T09:13:44Z</time>
      </trkpt>
      <trkpt lat="49.08228" lon="1.51983">
        <ele>69</ele>
        <time>2022-05-23T09:18:32Z</time>
      </trkpt>
      <trkpt lat="49.08073" lon="1.52099">
        <ele>54</ele>
        <time>2022-05-23T09:22:22Z</time>
      </trkpt>
      <trkpt lat="49.08008" lon="1.52163">
        <ele>49</ele>
        <time>2022-05-23T09:24:05Z</time>
      </trkpt>
      <trkpt lat="49.07992" lon="1.5218">
        <ele>48</ele>
        <time>2022-05-23T09:24:31Z</time>
      </trkpt>
      <trkpt lat="49.07965" lon="1.52236">
        <ele>51</ele>
        <time>2022-05-23T09:25:32Z</time>
      </trkpt>
      <trkpt lat="49.08029" lon="1.52326">
        <ele>74</ele>
        <time>2022-05-23T09:27:28Z</time>
      </trkpt>
      <trkpt lat="49.07946" lon="1.52452">
        <ele>75</ele>
        <time>2022-05-23T09:30:05Z</time>
      </trkpt>
      <trkpt lat="49.07863" lon="1.52662">
        <ele>72</ele>
        <time>2022-05-23T09:33:39Z</time>
      </trkpt>
      <trkpt lat="49.0788" lon="1.52756">
        <ele>77</ele>
        <time>2022-05-23T09:35:04Z</time>
      </trkpt>
      <trkpt lat="49.07958" lon="1.52918">
        <ele>77</ele>
        <time>2022-05-23T09:38:00Z</time>
      </trkpt>
      <trkpt lat="49.07965" lon="1.52987">
        <ele>73</ele>
        <time>2022-05-23T09:39:01Z</time>
      </trkpt>
      <trkpt lat="49.07868" lon="1.53034">
        <ele>53</ele>
        <time>2022-05-23T09:41:17Z</time>
      </trkpt>
      <trkpt lat="49.07818" lon="1.53001">
        <ele>45</ele>
        <time>2022-05-23T09:42:29Z</time>
      </trkpt>
      <trkpt lat="49.0775" lon="1.53005">
        <ele>38</ele>
        <time>2022-05-23T09:44:00Z</time>
      </trkpt>
      <trkpt lat="49.07693" lon="1.53117">
        <ele>35</ele>
        <time>2022-05-23T09:46:04Z</time>
      </trkpt>
      <trkpt lat="49.07584" lon="1.53254">
        <ele>25</ele>
        <time>2022-05-23T09:49:13Z</time>
      </trkpt>
      <trkpt lat="49.07653" lon="1.53362">
        <ele>40</ele>
        <time>2022-05-23T09:51:24Z</time>
      </trkpt>
      <trkpt lat="49.07634" lon="1.53492">
        <ele>40</ele>
        <time>2022-05-23T09:53:21Z</time>
      </trkpt>
      <trkpt lat="49.07592" lon="1.53732">
        <ele>42</ele>
        <time>2022-05-23T09:56:58Z</time>
      </trkpt>
      <trkpt lat="49.07558" lon="1.53906">
        <ele>42</ele>
        <time>2022-05-23T09:59:37Z</time>
      </trkpt>
      <trkpt lat="49.07546" lon="1.54221">
        <ele>51</ele>
        <time>2022-05-23T10:04:13Z</time>
      </trkpt>
      <trkpt lat="49.07669" lon="1.54203">
        <ele>85</ele>
        <time>2022-05-23T10:06:58Z</time>
      </trkpt>
      <trkpt lat="49.07702" lon="1.54325">
        <ele>90</ele>
        <time>2022-05-23T10:08:53Z</time>
      </trkpt>
      <trkpt lat="49.0765" lon="1.54452">
        <ele>85</ele>
        <time>2022-05-23T10:11:04Z</time>
      </trkpt>
      <trkpt lat="49.07726" lon="1.54538">
        <ele>101</ele>
        <time>2022-05-23T10:13:10Z</time>
      </trkpt>
      <trkpt lat="49.07723" lon="1.5465">
        <ele>97</ele>
        <time>2022-05-23T10:14:48Z</time>
      </trkpt>
      <trkpt lat="49.07702" lon="1.54751">
        <ele>89</ele>
        <time>2022-05-23T10:16:21Z</time>
      </trkpt>
      <trkpt lat="49.07782" lon="1.5482">
        <ele>95</ele>
        <time>2022-05-23T10:18:23Z</time>
      </trkpt>
      <trkpt lat="49.07872" lon="1.54867">
        <ele>90</ele>
        <time>2022-05-23T10:20:30Z</time>
      </trkpt>
      <trkpt lat="49.0795" lon="1.54859">
        <ele>92</ele>
        <time>2022-05-23T10:22:15Z</time>
      </trkpt>
      <trkpt lat="49.07964" lon="1.54946">
        <ele>86</ele>
        <time>2022-05-23T10:23:33Z</time>
      </trkpt>
      <trkpt lat="49.07922" lon="1.55033">
        <ele>78</ele>
        <time>2022-05-23T10:25:07Z</time>
      </trkpt>
      <trkpt lat="49.07898" lon="1.55116">
        <ele>84</ele>
        <time>2022-05-23T10:26:27Z</time>
      </trkpt>
      <trkpt lat="49.07801" lon="1.55195">
        <ele>70</ele>
        <time>2022-05-23T10:28:53Z</time>
      </trkpt>
      <trkpt lat="49.07861" lon="1.55425">
        <ele>83</ele>
        <time>2022-05-23T10:32:30Z</time>
      </trkpt>
      <trkpt lat="49.07899" lon="1.55544">
        <ele>82</ele>
        <time>2022-05-23T10:34:25Z</time>
      </trkpt>
      <trkpt lat="49.08001" lon="1.55646">
        <ele>88</ele>
        <time>2022-05-23T10:37:08Z</time>
      </trkpt>
      <trkpt lat="49.07972" lon="1.55786">
        <ele>81</ele>
        <time>2022-05-23T10:39:17Z</time>
      </trkpt>
      <trkpt lat="49.07977" lon="1.55851">
        <ele>83</ele>
        <time>2022-05-23T10:40:14Z</time>
      </trkpt>
      <trkpt lat="49.08017" lon="1.55999">
        <ele>84</ele>
        <time>2022-05-23T10:42:34Z</time>
      </trkpt>
      <trkpt lat="49.08008" lon="1.56284">
        <ele>78</ele>
        <time>2022-05-23T10:46:43Z</time>
      </trkpt>
      <trkpt lat="49.08036" lon="1.56396">
        <ele>79</ele>
        <time>2022-05-23T10:48:28Z</time>
      </trkpt>
      <trkpt lat="49.08047" lon="1.5674">
        <ele>77</ele>
        <time>2022-05-23T10:53:29Z</time>
      </trkpt>
      <trkpt lat="49.08106" lon="1.56563">
        <ele>98</ele>
        <time>2022-05-23T10:56:22Z</time>
      </trkpt>
      <trkpt lat="49.08207" lon="1.5648">
        <ele>122</ele>
        <time>2022-05-23T10:58:56Z</time>
      </trkpt>
      <trkpt lat="49.08311" lon="1.56404">
        <ele>134</ele>
        <time>2022-05-23T11:01:29Z</time>
      </trkpt>
      <trkpt lat="49.08411" lon="1.57079">
        <ele>123</ele>
        <time>2022-05-23T11:11:34Z</time>
      </trkpt>
      <trkpt lat="49.0846" lon="1.57375">
        <ele>116</ele>
        <time>2022-05-23T11:16:01Z</time>
      </trkpt>
      <trkpt lat="49.08439" lon="1.57588">
        <ele>103</ele>
        <time>2022-05-23T11:19:09Z</time>
      </trkpt>
      <trkpt lat="49.08415" lon="1.57729">
        <ele>92</ele>
        <time>2022-05-23T11:21:17Z</time>
      </trkpt>
      <trkpt lat="49.08366" lon="1.57909">
        <ele>75</ele>
        <time>2022-05-23T11:24:07Z</time>
      </trkpt>
      <trkpt lat="49.0836" lon="1.58085">
        <ele>63</ele>
        <time>2022-05-23T11:26:41Z</time>
      </trkpt>
      <trkpt lat="49.0836" lon="1.58085">
        <ele>63</ele>
        <time>2022-05-23T11:26:41Z</time>
      </trkpt>
      <trkpt lat="49.08382" lon="1.58219">
        <ele>50</ele>
        <time>2022-05-23T11:28:42Z</time>
      </trkpt>
      <trkpt lat="49.08363" lon="1.58269">
        <ele>46</ele>
        <time>2022-05-23T11:29:32Z</time>
      </trkpt>
      <trkpt lat="49.08443" lon="1.58324">
        <ele>43</ele>
        <time>2022-05-23T11:31:29Z</time>
      </trkpt>
      <trkpt lat="49.08408" lon="1.58436">
        <ele>40</ele>
        <time>2022-05-23T11:33:18Z</time>
      </trkpt>
      <trkpt lat="49.0856" lon="1.58276">
        <ele>60</ele>
        <time>2022-05-23T11:37:24Z</time>
      </trkpt>
      <trkpt lat="49.08602" lon="1.58417">
        <ele>78</ele>
        <time>2022-05-23T11:39:40Z</time>
      </trkpt>
      <trkpt lat="49.08689" lon="1.58614">
        <ele>91</ele>
        <time>2022-05-23T11:43:07Z</time>
      </trkpt>
      <trkpt lat="49.0883" lon="1.58696">
        <ele>90</ele>
        <time>2022-05-23T11:46:29Z</time>
      </trkpt>
      <trkpt lat="49.08976" lon="1.58777">
        <ele>85</ele>
        <time>2022-05-23T11:49:56Z</time>
      </trkpt>
      <trkpt lat="49.09111" lon="1.58927">
        <ele>65</ele>
        <time>2022-05-23T11:53:39Z</time>
      </trkpt>
      <trkpt lat="49.09066" lon="1.59472">
        <ele>39</ele>
        <time>2022-05-23T12:01:39Z</time>
      </trkpt>
      <trkpt lat="49.09032" lon="1.59584">
        <ele>35</ele>
        <time>2022-05-23T12:03:27Z</time>
      </trkpt>
      <trkpt lat="49.09015" lon="1.59631">
        <ele>33</ele>
        <time>2022-05-23T12:04:14Z</time>
      </trkpt>
      <trkpt lat="49.09144" lon="1.6">
        <ele>34</ele>
        <time>2022-05-23T12:10:19Z</time>
      </trkpt>
      <trkpt lat="49.09105" lon="1.6012">
        <ele>28</ele>
        <time>2022-05-23T12:12:16Z</time>
      </trkpt>
      <trkpt lat="49.09226" lon="1.60228">
        <ele>31</ele>
        <time>2022-05-23T12:15:23Z</time>
      </trkpt>
      <trkpt lat="49.09219" lon="1.60349">
        <ele>27</ele>
        <time>2022-05-23T12:17:09Z</time>
      </trkpt>
      <trkpt lat="49.09182" lon="1.60436">
        <ele>26</ele>
        <time>2022-05-23T12:18:40Z</time>
      </trkpt>
      <trkpt lat="49.09011" lon="1.60578">
        <ele>24</ele>
        <time>2022-05-23T12:23:00Z</time>
      </trkpt>
      <trkpt lat="49.08925" lon="1.60696">
        <ele>23</ele>
        <time>2022-05-23T12:25:34Z</time>
      </trkpt>
      <trkpt lat="49.08717" lon="1.6088">
        <ele>21</ele>
        <time>2022-05-23T12:30:55Z</time>
      </trkpt>
      <trkpt lat="49.08567" lon="1.61058">
        <ele>21</ele>
        <time>2022-05-23T12:35:08Z</time>
      </trkpt>
      <trkpt lat="49.08457" lon="1.61145">
        <ele>21</ele>
        <time>2022-05-23T12:37:54Z</time>
      </trkpt>
      <trkpt lat="49.0839" lon="1.61262">
        <ele>31</ele>
        <time>2022-05-23T12:40:10Z</time>
      </trkpt>
      <trkpt lat="49.08184" lon="1.61524">
        <ele>65</ele>
        <time>2022-05-23T12:46:07Z</time>
      </trkpt>
      <trkpt lat="49.0799" lon="1.61779">
        <ele>90</ele>
        <time>2022-05-23T12:51:49Z</time>
      </trkpt>
      <trkpt lat="49.07947" lon="1.61917">
        <ele>85</ele>
        <time>2022-05-23T12:54:03Z</time>
      </trkpt>
      <trkpt lat="49.07997" lon="1.62029">
        <ele>81</ele>
        <time>2022-05-23T12:56:01Z</time>
      </trkpt>
      <trkpt lat="49.08017" lon="1.62136">
        <ele>71</ele>
        <time>2022-05-23T12:57:38Z</time>
      </trkpt>
      <trkpt lat="49.08" lon="1.62269">
        <ele>58</ele>
        <time>2022-05-23T12:59:37Z</time>
      </trkpt>
      <trkpt lat="49.08074" lon="1.62539">
        <ele>42</ele>
        <time>2022-05-23T13:03:53Z</time>
      </trkpt>
      <trkpt lat="49.0803" lon="1.62595">
        <ele>29</ele>
        <time>2022-05-23T13:05:09Z</time>
      </trkpt>
      <trkpt lat="49.08054" lon="1.62748">
        <ele>29</ele>
        <time>2022-05-23T13:07:26Z</time>
      </trkpt>
      <trkpt lat="49.08097" lon="1.62896">
        <ele>25</ele>
        <time>2022-05-23T13:09:48Z</time>
      </trkpt>
      <trkpt lat="49.08169" lon="1.62911">
        <ele>36</ele>
        <time>2022-05-23T13:11:25Z</time>
      </trkpt>
      <trkpt lat="49.0824" lon="1.62902">
        <ele>63</ele>
        <time>2022-05-23T13:13:00Z</time>
      </trkpt>
      <trkpt lat="49.08232" lon="1.62966">
        <ele>56</ele>
        <time>2022-05-23T13:13:57Z</time>
      </trkpt>
      <trkpt lat="49.0827" lon="1.63023">
        <ele>65</ele>
        <time>2022-05-23T13:15:08Z</time>
      </trkpt>
      <trkpt lat="49.08328" lon="1.63078">
        <ele>82</ele>
        <time>2022-05-23T13:16:39Z</time>
      </trkpt>
      <trkpt lat="49.08328" lon="1.63166">
        <ele>76</ele>
        <time>2022-05-23T13:17:56Z</time>
      </trkpt>
      <trkpt lat="49.08433" lon="1.63258">
        <ele>79</ele>
        <time>2022-05-23T13:20:38Z</time>
      </trkpt>
      <trkpt lat="49.08457" lon="1.63415">
        <ele>84</ele>
        <time>2022-05-23T13:22:59Z</time>
      </trkpt>
      <trkpt lat="49.08422" lon="1.6349">
        <ele>81</ele>
        <time>2022-05-23T13:24:19Z</time>
      </trkpt>
      <trkpt lat="49.08404" lon="1.63533">
        <ele>74</ele>
        <time>2022-05-23T13:25:04Z</time>
      </trkpt>
      <trkpt lat="49.08415" lon="1.63651">
        <ele>69</ele>
        <time>2022-05-23T13:26:48Z</time>
      </trkpt>
      <trkpt lat="49.08491" lon="1.63681">
        <ele>89</ele>
        <time>2022-05-23T13:28:33Z</time>
      </trkpt>
      <trkpt lat="49.08516" lon="1.63753">
        <ele>86</ele>
        <time>2022-05-23T13:29:44Z</time>
      </trkpt>
      <trkpt lat="49.08504" lon="1.63852">
        <ele>82</ele>
        <time>2022-05-23T13:31:12Z</time>
      </trkpt>
      <trkpt lat="49.08542" lon="1.63903">
        <ele>96</ele>
        <time>2022-05-23T13:32:19Z</time>
      </trkpt>
      <trkpt lat="49.08546" lon="1.63959">
        <ele>100</ele>
        <time>2022-05-23T13:33:09Z</time>
      </trkpt>
      <trkpt lat="49.08512" lon="1.64038">
        <ele>91</ele>
        <time>2022-05-23T13:34:31Z</time>
      </trkpt>
      <trkpt lat="49.08566" lon="1.64092">
        <ele>110</ele>
        <time>2022-05-23T13:35:57Z</time>
      </trkpt>
      <trkpt lat="49.08592" lon="1.64166">
        <ele>111</ele>
        <time>2022-05-23T13:37:11Z</time>
      </trkpt>
      <trkpt lat="49.08632" lon="1.64235">
        <ele>110</ele>
        <time>2022-05-23T13:38:31Z</time>
      </trkpt>
      <trkpt lat="49.08639" lon="1.64342">
        <ele>106</ele>
        <time>2022-05-23T13:40:05Z</time>
      </trkpt>
      <trkpt lat="49.08646" lon="1.64454">
        <ele>108</ele>
        <time>2022-05-23T13:41:44Z</time>
      </trkpt>
      <trkpt lat="49.08659" lon="1.64592">
        <ele>110</ele>
        <time>2022-05-23T13:43:45Z</time>
      </trkpt>
      <trkpt lat="49.08648" lon="1.64668">
        <ele>111</ele>
        <time>2022-05-23T13:44:53Z</time>
      </trkpt>
      <trkpt lat="49.08589" lon="1.64707">
        <ele>98</ele>
        <time>2022-05-23T13:46:19Z</time>
      </trkpt>
      <trkpt lat="49.08547" lon="1.64725">
        <ele>85</ele>
        <time>2022-05-23T13:47:17Z</time>
      </trkpt>
      <trkpt lat="49.08546" lon="1.64799">
        <ele>89</ele>
        <time>2022-05-23T13:48:22Z</time>
      </trkpt>
      <trkpt lat="49.08548" lon="1.64852">
        <ele>91</ele>
        <time>2022-05-23T13:49:09Z</time>
      </trkpt>
      <trkpt lat="49.08534" lon="1.64916">
        <ele>85</ele>
        <time>2022-05-23T13:50:07Z</time>
      </trkpt>
      <trkpt lat="49.08594" lon="1.65007">
        <ele>105</ele>
        <time>2022-05-23T13:52:00Z</time>
      </trkpt>
      <trkpt lat="49.08601" lon="1.65097">
        <ele>101</ele>
        <time>2022-05-23T13:53:20Z</time>
      </trkpt>
      <trkpt lat="49.08589" lon="1.65178">
        <ele>93</ele>
        <time>2022-05-23T13:54:32Z</time>
      </trkpt>
      <trkpt lat="49.08551" lon="1.65232">
        <ele>75</ele>
        <time>2022-05-23T13:55:41Z</time>
      </trkpt>
      <trkpt lat="49.08623" lon="1.65273">
        <ele>94</ele>
        <time>2022-05-23T13:57:24Z</time>
      </trkpt>
      <trkpt lat="49.08661" lon="1.6537">
        <ele>101</ele>
        <time>2022-05-23T13:59:03Z</time>
      </trkpt>
      <trkpt lat="49.08671" lon="1.65456">
        <ele>110</ele>
        <time>2022-05-23T14:00:19Z</time>
      </trkpt>
      <trkpt lat="49.08678" lon="1.65594">
        <ele>127</ele>
        <time>2022-05-23T14:02:20Z</time>
      </trkpt>
      <trkpt lat="49.08691" lon="1.65663">
        <ele>134</ele>
        <time>2022-05-23T14:03:23Z</time>
      </trkpt>
      <trkpt lat="49.08658" lon="1.65783">
        <ele>136</ele>
        <time>2022-05-23T14:05:17Z</time>
      </trkpt>
      <trkpt lat="49.08637" lon="1.65926">
        <ele>133</ele>
        <time>2022-05-23T14:07:25Z</time>
      </trkpt>
      <trkpt lat="49.08618" lon="1.66056">
        <ele>131</ele>
        <time>2022-05-23T14:09:21Z</time>
      </trkpt>
      <trkpt lat="49.08581" lon="1.66219">
        <ele>135</ele>
        <time>2022-05-23T14:11:52Z</time>
      </trkpt>
      <trkpt lat="49.08568" lon="1.66301">
        <ele>135</ele>
        <time>2022-05-23T14:13:06Z</time>
      </trkpt>
      <trkpt lat="49.08595" lon="1.66434">
        <ele>137</ele>
        <time>2022-05-23T14:15:07Z</time>
      </trkpt>
      <trkpt lat="49.0856" lon="1.6659">
        <ele>135</ele>
        <time>2022-05-23T14:17:31Z</time>
      </trkpt>
      <trkpt lat="49.08494" lon="1.66713">
        <ele>136</ele>
        <time>2022-05-23T14:19:50Z</time>
      </trkpt>
      <trkpt lat="49.08455" lon="1.66858">
        <ele>139</ele>
        <time>2022-05-23T14:22:07Z</time>
      </trkpt>
      <trkpt lat="49.08387" lon="1.67001">
        <ele>138</ele>
        <time>2022-05-23T14:24:42Z</time>
      </trkpt>
      <trkpt lat="49.08348" lon="1.67106">
        <ele>141</ele>
        <time>2022-05-23T14:26:27Z</time>
      </trkpt>
      <trkpt lat="49.08306" lon="1.67251">
        <ele>143</ele>
        <time>2022-05-23T14:28:46Z</time>
      </trkpt>
      <trkpt lat="49.08263" lon="1.67394">
        <ele>141</ele>
        <time>2022-05-23T14:31:03Z</time>
      </trkpt>
      <trkpt lat="49.08218" lon="1.67529">
        <ele>141</ele>
        <time>2022-05-23T14:33:16Z</time>
      </trkpt>
      <trkpt lat="49.0819" lon="1.67707">
        <ele>145</ele>
        <time>2022-05-23T14:35:56Z</time>
      </trkpt>
      <trkpt lat="49.08124" lon="1.67815">
        <ele>141</ele>
        <time>2022-05-23T14:38:05Z</time>
      </trkpt>
      <trkpt lat="49.07995" lon="1.68093">
        <ele>141</ele>
        <time>2022-05-23T14:43:03Z</time>
      </trkpt>
      <trkpt lat="49.079" lon="1.68338">
        <ele>142</ele>
        <time>2022-05-23T14:47:12Z</time>
      </trkpt>
      <trkpt lat="49.07836" lon="1.68527">
        <ele>142</ele>
        <time>2022-05-23T14:50:18Z</time>
      </trkpt>
      <trkpt lat="49.07744" lon="1.68772">
        <ele>146</ele>
        <time>2022-05-23T14:54:24Z</time>
      </trkpt>
      <trkpt lat="49.07672" lon="1.68904">
        <ele>147</ele>
        <time>2022-05-23T14:56:55Z</time>
      </trkpt>
      <trkpt lat="49.07605" lon="1.69041">
        <ele>144</ele>
        <time>2022-05-23T14:59:24Z</time>
      </trkpt>
      <trkpt lat="49.07545" lon="1.69146">
        <ele>143</ele>
        <time>2022-05-23T15:01:26Z</time>
      </trkpt>
      <trkpt lat="49.07492" lon="1.69235">
        <ele>143</ele>
        <time>2022-05-23T15:03:11Z</time>
      </trkpt>
      <trkpt lat="49.07415" lon="1.6932">
        <ele>143</ele>
        <time>2022-05-23T15:05:18Z</time>
      </trkpt>
      <trkpt lat="49.07314" lon="1.69445">
        <ele>138</ele>
        <time>2022-05-23T15:08:11Z</time>
      </trkpt>
      <trkpt lat="49.07251" lon="1.69521">
        <ele>137</ele>
        <time>2022-05-23T15:09:58Z</time>
      </trkpt>
      <trkpt lat="49.07179" lon="1.69537">
        <ele>131</ele>
        <time>2022-05-23T15:11:35Z</time>
      </trkpt>
      <trkpt lat="49.0703" lon="1.69624">
        <ele>121</ele>
        <time>2022-05-23T15:15:08Z</time>
      </trkpt>
      <trkpt lat="49.06943" lon="1.69683">
        <ele>108</ele>
        <time>2022-05-23T15:17:15Z</time>
      </trkpt>
      <trkpt lat="49.06824" lon="1.69786">
        <ele>84</ele>
        <time>2022-05-23T15:20:18Z</time>
      </trkpt>
      <trkpt lat="49.06663" lon="1.69957">
        <ele>51</ele>
        <time>2022-05-23T15:24:40Z</time>
      </trkpt>
      <trkpt lat="49.06623" lon="1.70059">
        <ele>46</ele>
        <time>2022-05-23T15:26:24Z</time>
      </trkpt>
      <trkpt lat="49.06421" lon="1.69965">
        <ele>19</ele>
        <time>2022-05-23T15:31:05Z</time>
      </trkpt>
      <trkpt lat="49.06367" lon="1.69932">
        <ele>17</ele>
        <time>2022-05-23T15:32:23Z</time>
      </trkpt>
      <trkpt lat="49.063" lon="1.69942">
        <ele>17</ele>
        <time>2022-05-23T15:33:53Z</time>
      </trkpt>
      <trkpt lat="49.06247" lon="1.69957">
        <ele>18</ele>
        <time>2022-05-23T15:35:05Z</time>
      </trkpt>
      <trkpt lat="49.06244" lon="1.70018">
        <ele>23</ele>
        <time>2022-05-23T15:35:58Z</time>
      </trkpt>
      <trkpt lat="49.0618" lon="1.70027">
        <ele>26</ele>
        <time>2022-05-23T15:37:24Z</time>
      </trkpt>
      <trkpt lat="49.06166" lon="1.7007">
        <ele>31</ele>
        <time>2022-05-23T15:38:06Z</time>
      </trkpt>
      <trkpt lat="49.0615" lon="1.70113">
        <ele>35</ele>
        <time>2022-05-23T15:38:49Z</time>
      </trkpt>
      <trkpt lat="49.0594" lon="1.70135">
        <ele>49</ele>
        <time>2022-05-23T15:43:30Z</time>
      </trkpt>
      <trkpt lat="49.05881" lon="1.7021">
        <ele>64</ele>
        <time>2022-05-23T15:45:13Z</time>
      </trkpt>
      <trkpt lat="49.05807" lon="1.70251">
        <ele>75</ele>
        <time>2022-05-23T15:46:58Z</time>
      </trkpt>
      <trkpt lat="49.05734" lon="1.70292">
        <ele>86</ele>
        <time>2022-05-23T15:48:42Z</time>
      </trkpt>
      <trkpt lat="49.05679" lon="1.70356">
        <ele>99</ele>
        <time>2022-05-23T15:50:14Z</time>
      </trkpt>
      <trkpt lat="49.0562" lon="1.70425">
        <ele>115</ele>
        <time>2022-05-23T15:51:53Z</time>
      </trkpt>
      <trkpt lat="49.05484" lon="1.70501">
        <ele>128</ele>
        <time>2022-05-23T15:55:06Z</time>
      </trkpt>
      <trkpt lat="49.05347" lon="1.70537">
        <ele>134</ele>
        <time>2022-05-23T15:58:12Z</time>
      </trkpt>
      <trkpt lat="49.05213" lon="1.70389">
        <ele>128</ele>
        <time>2022-05-23T16:01:53Z</time>
      </trkpt>
      <trkpt lat="49.05048" lon="1.70301">
        <ele>128</ele>
        <time>2022-05-23T16:05:46Z</time>
      </trkpt>
      <trkpt lat="49.04868" lon="1.70168">
        <ele>132</ele>
        <time>2022-05-23T16:10:13Z</time>
      </trkpt>
      <trkpt lat="49.04731" lon="1.70015">
        <ele>129</ele>
        <time>2022-05-23T16:13:59Z</time>
      </trkpt>
      <trkpt lat="49.046" lon="1.69913">
        <ele>123</ele>
        <time>2022-05-23T16:17:16Z</time>
      </trkpt>
      <trkpt lat="49.04473" lon="1.69806">
        <ele>118</ele>
        <time>2022-05-23T16:20:29Z</time>
      </trkpt>
      <trkpt lat="49.04349" lon="1.69653">
        <ele>115</ele>
        <time>2022-05-23T16:24:02Z</time>
      </trkpt>
      <trkpt lat="49.04292" lon="1.69391">
        <ele>88</ele>
        <time>2022-05-23T16:28:03Z</time>
      </trkpt>
      <trkpt lat="49.04198" lon="1.69176">
        <ele>72</ele>
        <time>2022-05-23T16:31:50Z</time>
      </trkpt>
      <trkpt lat="49.04075" lon="1.69023">
        <ele>63</ele>
        <time>2022-05-23T16:35:21Z</time>
      </trkpt>
      <trkpt lat="49.04047" lon="1.69037">
        <ele>64</ele>
        <time>2022-05-23T16:36:01Z</time>
      </trkpt>
      <trkpt lat="49.03984" lon="1.69147">
        <ele>71</ele>
        <time>2022-05-23T16:38:08Z</time>
      </trkpt>
      <trkpt lat="49.03894" lon="1.69319">
        <ele>86</ele>
        <time>2022-05-23T16:41:21Z</time>
      </trkpt>
      <trkpt lat="49.03836" lon="1.69467">
        <ele>100</ele>
        <time>2022-05-23T16:43:52Z</time>
      </trkpt>
      <trkpt lat="49.03803" lon="1.69642">
        <ele>111</ele>
        <time>2022-05-23T16:46:31Z</time>
      </trkpt>
      <trkpt lat="49.03791" lon="1.69817">
        <ele>117</ele>
        <time>2022-05-23T16:49:05Z</time>
      </trkpt>
      <trkpt lat="49.03782" lon="1.69877">
        <ele>117</ele>
        <time>2022-05-23T16:49:59Z</time>
      </trkpt>
      <trkpt lat="49.03636" lon="1.70147">
        <ele>110</ele>
        <time>2022-05-23T16:55:05Z</time>
      </trkpt>
      <trkpt lat="49.03543" lon="1.70306">
        <ele>102</ele>
        <time>2022-05-23T16:58:11Z</time>
      </trkpt>
      <trkpt lat="49.03508" lon="1.70346">
        <ele>99</ele>
        <time>2022-05-23T16:59:10Z</time>
      </trkpt>
      <trkpt lat="49.03485" lon="1.70555">
        <ele>92</ele>
        <time>2022-05-23T17:02:15Z</time>
      </trkpt>
      <trkpt lat="49.034" lon="1.70637">
        <ele>86</ele>
        <time>2022-05-23T17:04:29Z</time>
      </trkpt>
      <trkpt lat="49.03324" lon="1.70787">
        <ele>82</ele>
        <time>2022-05-23T17:07:15Z</time>
      </trkpt>
      <trkpt lat="49.03167" lon="1.7056">
        <ele>74</ele>
        <time>2022-05-23T17:12:04Z</time>
      </trkpt>
      <trkpt lat="49.03068" lon="1.70276">
        <ele>67</ele>
        <time>2022-05-23T17:16:45Z</time>
      </trkpt>
      <trkpt lat="49.02964" lon="1.70139">
        <ele>63</ele>
        <time>2022-05-23T17:19:49Z</time>
      </trkpt>
      <trkpt lat="49.02964" lon="1.70139">
        <ele>63</ele>
        <time>2022-05-23T17:19:49Z</time>
      </trkpt>
      <trkpt lat="49.02796" lon="1.7">
        <ele>58</ele>
        <time>2022-05-23T17:24:04Z</time>
      </trkpt>
      <trkpt lat="49.02686" lon="1.69989">
        <ele>57</ele>
        <time>2022-05-23T17:26:31Z</time>
      </trkpt>
      <trkpt lat="49.0257" lon="1.70017">
        <ele>54</ele>
        <time>2022-05-23T17:29:08Z</time>
      </trkpt>
      <trkpt lat="49.02456" lon="1.70064">
        <ele>50</ele>
        <time>2022-05-23T17:31:45Z</time>
      </trkpt>
      <trkpt lat="49.02423" lon="1.70259">
        <ele>58</ele>
        <time>2022-05-23T17:34:42Z</time>
      </trkpt>
      <trkpt lat="49.02387" lon="1.70598">
        <ele>64</ele>
        <time>2022-05-23T17:39:42Z</time>
      </trkpt>
      <trkpt lat="49.02359" lon="1.70869">
        <ele>73</ele>
        <time>2022-05-23T17:43:42Z</time>
      </trkpt>
      <trkpt lat="49.02366" lon="1.70981">
        <ele>82</ele>
        <time>2022-05-23T17:45:21Z</time>
      </trkpt>
      <trkpt lat="49.02272" lon="1.71062">
        <ele>97</ele>
        <time>2022-05-23T17:47:45Z</time>
      </trkpt>
      <trkpt lat="49.02205" lon="1.7111">
        <ele>104</ele>
        <time>2022-05-23T17:49:23Z</time>
      </trkpt>
      <trkpt lat="49.02157" lon="1.71147">
        <ele>108</ele>
        <time>2022-05-23T17:50:35Z</time>
      </trkpt>
      <trkpt lat="49.02137" lon="1.71241">
        <ele>115</ele>
        <time>2022-05-23T17:52:02Z</time>
      </trkpt>
      <trkpt lat="49.02035" lon="1.71198">
        <ele>110</ele>
        <time>2022-05-23T17:54:23Z</time>
      </trkpt>
      <trkpt lat="49.0201" lon="1.71168">
        <ele>112</ele>
        <time>2022-05-23T17:55:05Z</time>
      </trkpt>
      <trkpt lat="49.01958" lon="1.71086">
        <ele>122</ele>
        <time>2022-05-23T17:56:45Z</time>
      </trkpt>
      <trkpt lat="49.01966" lon="1.70971">
        <ele>125</ele>
        <time>2022-05-23T17:58:26Z</time>
      </trkpt>
      <trkpt lat="49.02035" lon="1.70816">
        <ele>126</ele>
        <time>2022-05-23T18:01:10Z</time>
      </trkpt>
      <trkpt lat="49.02039" lon="1.70676">
        <ele>120</ele>
        <time>2022-05-23T18:03:13Z</time>
      </trkpt>
      <trkpt lat="49.01972" lon="1.70585">
        <ele>123</ele>
        <time>2022-05-23T18:05:13Z</time>
      </trkpt>
      <trkpt lat="49.01866" lon="1.70409">
        <ele>122</ele>
        <time>2022-05-23T18:08:42Z</time>
      </trkpt>
      <trkpt lat="49.01738" lon="1.70196">
        <ele>112</ele>
        <time>2022-05-23T18:12:55Z</time>
      </trkpt>
      <trkpt lat="49.01622" lon="1.70141">
        <ele>112</ele>
        <time>2022-05-23T18:15:37Z</time>
      </trkpt>
      <trkpt lat="49.01471" lon="1.70165">
        <ele>105</ele>
        <time>2022-05-23T18:18:59Z</time>
      </trkpt>
      <trkpt lat="49.01356" lon="1.70299">
        <ele>100</ele>
        <time>2022-05-23T18:22:13Z</time>
      </trkpt>
      <trkpt lat="49.01324" lon="1.70584">
        <ele>111</ele>
        <time>2022-05-23T18:26:26Z</time>
      </trkpt>
      <trkpt lat="49.01392" lon="1.7073">
        <ele>116</ele>
        <time>2022-05-23T18:29:02Z</time>
      </trkpt>
      <trkpt lat="49.01427" lon="1.70918">
        <ele>123</ele>
        <time>2022-05-23T18:31:53Z</time>
      </trkpt>
      <trkpt lat="49.01491" lon="1.71027">
        <ele>130</ele>
        <time>2022-05-23T18:34:01Z</time>
      </trkpt>
      <trkpt lat="49.01352" lon="1.71197">
        <ele>122</ele>
        <time>2022-05-23T18:37:59Z</time>
      </trkpt>
      <trkpt lat="49.01201" lon="1.71313">
        <ele>112</ele>
        <time>2022-05-23T18:41:45Z</time>
      </trkpt>
      <trkpt lat="49.01154" lon="1.71403">
        <ele>110</ele>
        <time>2022-05-23T18:43:26Z</time>
      </trkpt>
      <trkpt lat="49.01128" lon="1.71543">
        <ele>111</ele>
        <time>2022-05-23T18:45:33Z</time>
      </trkpt>
      <trkpt lat="49.01086" lon="1.71583">
        <ele>110</ele>
        <time>2022-05-23T18:46:39Z</time>
      </trkpt>
      <trkpt lat="49.00989" lon="1.7158">
        <ele>106</ele>
        <time>2022-05-23T18:48:48Z</time>
      </trkpt>
      <trkpt lat="49.00923" lon="1.71583">
        <ele>109</ele>
        <time>2022-05-23T18:50:17Z</time>
      </trkpt>
      <trkpt lat="49.00769" lon="1.71572">
        <ele>93</ele>
        <time>2022-05-23T18:53:42Z</time>
      </trkpt>
      <trkpt lat="49.00688" lon="1.71673">
        <ele>81</ele>
        <time>2022-05-23T18:56:02Z</time>
      </trkpt>
      <trkpt lat="49.00634" lon="1.71807">
        <ele>77</ele>
        <time>2022-05-23T18:58:20Z</time>
      </trkpt>
      <trkpt lat="49.00596" lon="1.7194">
        <ele>75</ele>
        <time>2022-05-23T19:00:27Z</time>
      </trkpt>
      <trkpt lat="49.00518" lon="1.72034">
        <ele>73</ele>
        <time>2022-05-23T19:02:39Z</time>
      </trkpt>
      <trkpt lat="49.00444" lon="1.72179">
        <ele>75</ele>
        <time>2022-05-23T19:05:20Z</time>
      </trkpt>
      <trkpt lat="49.0039" lon="1.72139">
        <ele>59</ele>
        <time>2022-05-23T19:06:40Z</time>
      </trkpt>
      <trkpt lat="49.00423" lon="1.72009">
        <ele>53</ele>
        <time>2022-05-23T19:08:42Z</time>
      </trkpt>
      <trkpt lat="49.00366" lon="1.71901">
        <ele>28</ele>
        <time>2022-05-23T19:10:44Z</time>
      </trkpt>
      <trkpt lat="49.00414" lon="1.71843">
        <ele>27</ele>
        <time>2022-05-23T19:12:05Z</time>
      </trkpt>
      <trkpt lat="49.00347" lon="1.71742">
        <ele>21</ele>
        <time>2022-05-23T19:14:11Z</time>
      </trkpt>
      <trkpt lat="49.00347" lon="1.71742">
        <ele>21</ele>
        <time>2022-05-23T19:14:11Z</time>
      </trkpt>
      <trkpt lat="49.00152" lon="1.71981">
        <ele>18</ele>
        <time>2022-05-23T19:19:45Z</time>
      </trkpt>
      <trkpt lat="48.99975" lon="1.72143">
        <ele>18</ele>
        <time>2022-05-23T19:24:21Z</time>
      </trkpt>
      <trkpt lat="48.99828" lon="1.72226">
        <ele>19</ele>
        <time>2022-05-23T19:27:50Z</time>
      </trkpt>
      <trkpt lat="48.99643" lon="1.72287">
        <ele>18</ele>
        <time>2022-05-23T19:32:02Z</time>
      </trkpt>
      <trkpt lat="48.99563" lon="1.72357">
        <ele>18</ele>
        <time>2022-05-23T19:34:06Z</time>
      </trkpt>
      <trkpt lat="48.99442" lon="1.72479">
        <ele>18</ele>
        <time>2022-05-23T19:37:19Z</time>
      </trkpt>
      <trkpt lat="48.99324" lon="1.72588">
        <ele>20</ele>
        <time>2022-05-23T19:40:23Z</time>
      </trkpt>
      <trkpt lat="48.99269" lon="1.72476">
        <ele>18</ele>
        <time>2022-05-23T19:42:26Z</time>
      </trkpt>
      <trkpt lat="48.99212" lon="1.72295">
        <ele>21</ele>
        <time>2022-05-23T19:45:22Z</time>
      </trkpt>
      <trkpt lat="48.99151" lon="1.7209">
        <ele>19</ele>
        <time>2022-05-23T19:48:39Z</time>
      </trkpt>
      <trkpt lat="48.99106" lon="1.72014">
        <ele>31</ele>
        <time>2022-05-23T19:50:08Z</time>
      </trkpt>
      <trkpt lat="48.9894" lon="1.71468">
        <ele>41</ele>
        <time>2022-05-23T19:58:55Z</time>
      </trkpt>
      <trkpt lat="48.99009" lon="1.7114">
        <ele>40</ele>
        <time>2022-05-23T20:03:57Z</time>
      </trkpt>
      <trkpt lat="48.98971" lon="1.7036">
        <ele>35</ele>
        <time>2022-05-23T20:15:22Z</time>
      </trkpt>
    </trkseg>
  </trk>
</gpx>